CDT,Max TemperatureF,Mean TemperatureF,Min TemperatureF,Max Dew PointF,MeanDew PointF,Min DewpointF,Max Humidity, Mean Humidity, Min Humidity, Max Sea Level PressureIn, Mean Sea Level PressureIn, Min Sea Level PressureIn, Max VisibilityMiles, Mean VisibilityMiles, Min VisibilityMiles, Max Wind SpeedMPH, Mean Wind SpeedMPH, Max Gust SpeedMPH,PrecipitationIn, CloudCover, Events, WindDirDegrees
2013-8-1,85,72,58,69,62,56,100,74,48,30.10,30.01,29.86,10,8,0,31,8,37,1.14,3,Fog-Rain-Thunderstorm,163
2013-8-2,80,71,61,67,63,59,100,81,62,30.06,29.94,29.87,10,9,4,16,6,21,T,4,,62
2013-8-3,75,67,59,60,57,55,87,70,53,30.20,30.14,30.05,10,10,10,14,5,17,T,3,,75
2013-8-4,79,68,56,66,60,54,93,75,57,30.20,30.09,29.99,10,10,9,20,9,31,0.00,4,,137
2013-8-5,84,76,67,72,68,64,100,79,58,29.99,29.92,29.84,10,7,1,21,6,31,0.20,6,Rain-Thunderstorm,226
2013-8-6,86,77,67,72,67,62,100,79,58,29.92,29.85,29.79,10,8,2,20,6,24,0.38,5,Rain-Thunderstorm,185
2013-8-7,81,71,61,66,62,58,93,72,51,30.00,29.96,29.87,10,10,10,14,4,17,0.00,0,,92
2013-8-8,77,70,62,65,63,60,100,85,69,30.04,30.00,29.95,10,10,9,13,5,17,0.01,4,Rain,174
2013-8-9,81,71,60,65,60,55,100,71,42,30.15,30.08,30.03,10,6,0,12,4,17,0.00,2,Fog,19
2013-8-10,84,73,61,66,62,57,93,72,50,30.17,30.12,30.04,10,10,8,18,9,23,T,3,,174
2013-8-11,85,75,64,70,65,61,93,74,55,30.06,30.03,29.99,10,10,7,20,9,25,0.09,2,Rain-Thunderstorm,218
2013-8-12,82,72,61,65,62,58,100,74,48,30.09,30.06,30.02,10,8,1,12,4,15,0.00,2,,59
2013-8-13,76,68,59,62,58,56,93,72,50,30.19,30.14,30.09,10,10,9,10,2,14,0.00,3,,121
2013-8-14,68,63,57,63,60,54,100,88,76,30.18,30.12,30.06,10,6,2,15,7,20,0.81,7,Rain,110
2013-8-15,68,64,60,63,60,58,100,94,87,30.12,30.06,30.03,9,5,1,15,8,18,0.00,8,,105
2013-8-16,70,65,60,63,60,59,100,87,73,30.17,30.14,30.11,10,6,1,12,6,16,T,8,,123
2013-8-17,78,69,60,63,60,57,90,72,54,30.16,30.13,30.09,10,10,10,20,11,26,0.00,2,,161
2013-8-18,80,70,59,63,59,54,84,69,54,30.12,30.07,30.02,10,10,10,21,10,24,0.00,4,,161
2013-8-19,86,76,65,70,66,62,87,72,57,30.01,29.94,29.88,10,9,7,22,12,26,0.00,1,,175
2013-8-20,88,78,68,72,69,65,90,75,59,29.90,29.87,29.85,10,9,5,18,11,24,0.00,0,,191
2013-8-21,91,80,69,74,69,65,90,73,55,30.09,29.93,29.87,10,10,7,23,10,34,0.02,1,Rain-Thunderstorm,183
2013-8-22,82,75,67,70,68,65,93,78,62,30.11,30.04,29.99,10,10,2,13,7,24,0.44,3,Rain-Thunderstorm,105
2013-8-23,88,78,68,72,69,67,97,76,55,30.06,29.99,29.92,10,9,6,22,10,26,0.00,3,,137
2013-8-24,91,83,74,74,71,68,82,71,59,30.02,29.95,29.91,10,10,8,24,16,37,0.01,3,Rain-Thunderstorm,161
2013-8-25,92,84,75,74,71,69,82,69,56,30.01,29.99,29.96,10,10,10,28,16,36,0.00,0,,180
2013-8-26,92,83,74,73,70,67,79,68,56,30.00,29.94,29.87,10,10,10,25,17,37,0.00,0,,187
2013-8-27,92,83,73,73,68,64,73,63,52,29.89,29.87,29.85,10,10,10,18,12,24,0.00,0,,202
2013-8-28,92,79,65,72,66,61,87,68,49,29.97,29.93,29.88,10,10,10,13,6,16,0.00,0,,185
2013-8-29,94,79,64,74,69,63,93,71,49,29.98,29.92,29.87,10,10,7,18,7,23,0.00,0,,165
2013-8-30,91,79,67,76,70,66,93,70,47,29.91,29.88,29.86,10,10,10,23,6,31,0.00,0,,344
2013-8-31,91,79,67,71,67,64,97,69,41,29.89,29.83,29.76,10,10,9,22,5,28,0.00,0,,191